createdAt,value
2023-02-02T11:05:13.459Z,3.19
2023-02-02T11:07:54.736Z,4.90
2023-02-02T11:10:33.231Z,4.55
2023-02-02T11:13:18.498Z,5.78
2023-02-02T11:16:15.805Z,5.72
2023-02-02T11:18:49.883Z,6.65
2023-02-02T11:21:30.409Z,5.47
2023-02-02T11:24:16.042Z,4.70
2023-02-02T11:26:58.801Z,6.40
2023-02-02T11:29:42.440Z,6.00
2023-02-02T11:32:25.390Z,4.70
2023-02-02T11:35:53.368Z,6.00
2023-02-02T11:38:40.687Z,4.85
2023-02-02T11:41:19.333Z,6.30
2023-02-02T11:43:53.471Z,5.80
2023-02-02T11:46:32.983Z,4.60
2023-02-02T11:49:13.842Z,5.85
2023-02-02T11:52:04.368Z,5.10
2023-02-02T11:54:34.614Z,4.55
2023-02-02T11:57:35.871Z,4.88
2023-02-02T12:00:17.984Z,4.50
2023-02-02T12:02:51.565Z,5.57
2023-02-02T12:05:22.401Z,5.70
2023-02-02T12:10:41.732Z,5.40
2023-02-02T12:13:29.646Z,5.07
2023-02-02T12:16:22.721Z,4.70
2023-02-02T12:18:59.006Z,4.75
2023-02-02T12:21:43.649Z,4.60
2023-02-02T12:24:18.794Z,9.98
2023-02-02T12:27:31.888Z,6.60
2023-02-02T12:30:08.959Z,4.63
2023-02-02T12:32:46.068Z,3.70
2023-02-02T12:35:45.123Z,4.40
2023-02-02T12:38:14.883Z,4.45
2023-02-02T12:40:48.667Z,4.05
2023-02-02T12:43:23.121Z,4.35
2023-02-02T12:46:01.263Z,4.13
2023-02-02T12:48:56.702Z,4.50
2023-02-02T12:51:39.989Z,4.72
2023-02-02T12:54:35.184Z,4.72
2023-02-02T12:57:27.529Z,4.15
2023-02-02T13:00:02.942Z,4.70
2023-02-02T13:02:57.042Z,5.05
2023-02-02T13:05:32.722Z,4.15
2023-02-02T13:08:05.826Z,3.85
2023-02-02T13:10:44.645Z,4.20
2023-02-02T13:13:38.377Z,4.15
2023-02-02T13:16:19.456Z,3.97
2023-02-02T13:18:57.135Z,5.28
2023-02-02T13:21:48.303Z,4.50
2023-02-02T13:24:20.249Z,4.18
2023-02-02T13:26:57.527Z,4.55
2023-02-02T13:29:31.621Z,4.57
2023-02-02T13:32:14.739Z,3.88
2023-02-02T13:35:14.855Z,4.72
2023-02-02T13:43:36.106Z,4.50
2023-02-02T13:46:41.846Z,4.82
2023-02-02T13:49:22.307Z,4.28
2023-02-02T13:52:08.680Z,5.03
2023-02-02T13:54:45.900Z,4.75
2023-02-02T13:57:42.376Z,3.95
2023-02-02T14:00:21.744Z,4.60
2023-02-02T14:02:56.749Z,4.63
2023-02-02T14:05:42.813Z,4.53
2023-02-02T14:08:22.954Z,4.50
2023-02-02T14:13:58.770Z,3.90
2023-02-02T14:16:32.024Z,4.50
2023-02-02T14:19:15.211Z,4.45
2023-02-02T14:21:42.626Z,4.00
2023-02-02T14:24:26.528Z,4.20
2023-02-02T14:27:01.834Z,5.50
2023-02-02T14:29:47.021Z,4.85
2023-02-02T14:32:35.595Z,5.30
2023-02-02T14:35:16.514Z,4.60
2023-02-02T14:38:00.433Z,3.80
2023-02-02T14:40:35.091Z,4.57
2023-02-02T14:43:43.482Z,5.00
2023-02-02T14:46:20.300Z,6.60
2023-02-02T14:48:59.277Z,7.22
2023-02-02T14:51:34.656Z,7.13
2023-02-02T14:54:03.787Z,6.35
2023-02-02T14:59:35.451Z,6.93
2023-02-02T15:02:33.247Z,6.28
2023-02-02T15:05:09.602Z,6.20
2023-02-02T15:07:55.669Z,7.15
2023-02-02T15:11:01.062Z,6.40
2023-02-02T15:13:38.127Z,7.20
2023-02-02T15:16:24.942Z,6.95
2023-02-02T15:18:52.093Z,7.07
2023-02-02T15:21:33.163Z,6.90
2023-02-02T15:24:12.446Z,7.50
2023-02-02T15:26:48.537Z,7.95
2023-02-02T15:29:25.175Z,7.93
2023-02-02T15:32:12.362Z,7.80
